Terminal Aerodrome Forecast
Issued by NWS

Home | Current Version | Previous Version | Text Only | Print | Product List | Glossary On
Versions: 1 2 3 4 5 6 7 8 9 10 11 12 13 14 15 16 17
556
FTUS42 TJSJ 292340
TAFJSJ
TAF
TJSJ 292340Z 3000/3024 09015G30KT P6SM VCSH SCT020 SCT050
     FM301300 08015G30KT P6SM VCSH FEW030 SCT060
     FM302200 09018G25KT P6SM SCT020 SCT060=

USA.gov is the U.S. government's official web portal to all federal, state and local government web resources and services.